Latest Weather Observations for Bankstown

IDN60801

Issued at 4:02 am EDT Wednesday 25 January 2017 (issued every 30 minutes, with the page automatically refreshed every 10 minutes)

About weather observations | Map of weather stations | Latest weather observations for NSW | Other Formats
Station Details ID: 066137 Name: BANKSTOWN AIRPORT AWS Lat: -33.92 Lon: 150.99 Height: 6.5 m
Data from the previous 72 hours. | See also: Recent months at Bankstown
Date/Time
EDT
Temp
°C
App
Temp
°C
Dew
Point
°C
Rel
Hum
%
Delta-T
°C
Wind Press
QNH
hPa
Press
MSL
hPa
Rain since
9am
mm
Dir  Spd
km/h
Gust
km/h
Spd
kts
Gust
kts
25/04:00am 20.7 20.2 15.0 70 3.3 S 11 15 6 8 1019.1 1019.1 4.6
25/03:30am 20.8 20.8 15.1 70 3.4 SSW 9 11 5 6 1019.5 1019.5 4.6
25/03:00am 20.7 20.4 15.5 72 3.1 S 11 19 6 10 1019.3 1019.3 4.6
25/02:30am 20.7 20.8 15.5 72 3.1 SSW 9 11 5 6 1019.6 1019.6 4.6
25/02:00am 21.0 20.3 15.3 70 3.4 SSE 13 17 7 9 1019.7 1019.7 4.6
25/01:30am 20.9 18.9 15.4 71 3.3 SSE 20 30 11 16 1019.8 1019.8 4.6
25/01:00am 21.2 19.4 15.5 70 3.4 SSE 19 28 10 15 1019.8 1019.8 4.6
25/12:30am 20.9 19.6 15.7 72 3.1 S 17 24 9 13 1020.0 1020.0 4.6
25/12:00am 21.0 20.0 15.5 71 3.3 SSE 15 28 8 15 1019.7 1019.7 4.6
 
Date/Time
EDT
Temp
°C
App
Temp
°C
Dew
Point
°C
Rel
Hum
%
Delta-T
°C
Wind Press
QNH
hPa
Press
MSL
hPa
Rain since
9am
mm
Dir  Spd
km/h
Gust
km/h
Spd
kts
Gust
kts
24/11:30pm 21.0 19.6 15.5 71 3.3 SSE 17 24 9 13 1019.6 1019.6 4.6
24/11:00pm 21.1 19.1 15.6 71 3.3 SSE 20 28 11 15 1019.0 1019.0 4.6
24/10:30pm 21.3 19.0 15.6 70 3.4 SSE 22 32 12 17 1018.6 1018.6 4.6
24/10:00pm 21.2 18.1 16.6 75 2.8 SSE 28 37 15 20 1018.4 1018.4 4.6
24/09:30pm 21.1 19.4 17.1 78 2.4 SSE 22 32 12 17 1017.9 1017.9 4.6
24/09:00pm 21.2 19.3 17.6 80 2.2 SSE 24 39 13 21 1017.1 1017.1 4.6
24/08:30pm 21.2 19.7 17.8 81 2.1 SSE 22 35 12 19 1016.3 1016.3 4.6
24/08:00pm 21.2 19.5 18.2 83 1.9 SSE 24 32 13 17 1015.4 1015.4 4.6
24/07:39pm 21.6 19.7 18.6 83 1.9 SSE 26 37 14 20 1014.6 1014.6 4.6
24/07:30pm 21.6 19.7 18.6 83 1.9 SSE 26 35 14 19 1014.4 1014.4 4.6
24/07:00pm 21.6 19.2 19.0 85 1.6 SSE 30 46 16 25 1013.5 1013.5 4.6
24/06:41pm 21.6 19.3 19.3 87 1.5 SE 30 41 16 22 1013.1 1013.1 4.4
24/06:30pm 21.5 17.7 19.8 90 1.1 SE 39 52 21 28 1012.8 1012.8 4.4
24/06:21pm 21.3 19.1 19.6 90 1.1 SE 30 52 16 28 1012.4 1012.4 4.4
24/06:19pm 21.5 19.9 20.0 91 1.0 SE 28 39 15 21 1012.5 1012.5 4.4
24/06:00pm 21.4 18.8 20.0 92 0.9 SSE 33 44 18 24 1012.0 1012.0 3.6
24/05:56pm 21.7 19.1 20.0 90 1.1 SSE 33 44 18 24 1012.1 1012.1 1.6
24/05:34pm 23.1 19.6 19.7 81 2.2 SE 37 56 20 30 1011.7 1011.7 0.0
24/05:30pm 23.2 19.4 19.8 81 2.2 SE 39 56 21 30 1011.6 1011.6 0.0
24/05:08pm 24.7 20.9 19.8 74 3.2 SSE 39 57 21 31 1011.1 1011.1 0.0
24/05:00pm 24.7 20.1 20.0 75 3.0 SSE 44 61 24 33 1010.7 1010.7 0.0
24/04:41pm 27.9 26.5 19.7 61 5.3 SSW 26 61 14 33 1010.1 1010.1 0.0
24/04:39pm 30.6 31.0 19.9 52 7.0 SW 17 54 9 29 1009.7 1009.7 0.0
24/04:30pm 34.2 36.5 20.6 45 9.1 WNW 9 13 5 7 1008.8 1008.8 0.0
24/04:00pm 33.5 34.5 20.3 46 8.8 NW 15 20 8 11 1008.4 1008.4 0.0
24/03:30pm 34.3 35.1 19.1 40 10.0 NW 13 19 7 10 1008.3 1008.3 0.0
24/03:00pm 35.1 34.9 18.6 37 10.8 WNW 17 20 9 11 1008.3 1008.3 0.0
24/02:30pm 35.0 34.5 18.6 38 10.7 WNW 19 26 10 14 1008.2 1008.2 0.0
24/02:00pm 34.7 34.0 18.7 38 10.5 WNW 20 28 11 15 1007.7 1007.7 0.0
24/01:30pm 35.2 33.0 17.9 36 11.2 WNW 26 43 14 23 1007.4 1007.4 0.0
24/01:00pm 35.7 32.2 17.9 35 11.6 NW 33 44 18 24 1007.0 1007.0 0.0
24/12:30pm 35.9 32.3 17.6 34 11.8 WNW 33 48 18 26 1006.7 1006.7 0.0
24/12:00pm 35.5 32.1 18.1 35 11.4 WNW 33 44 18 24 1006.6 1006.6 0.0
24/11:30am 35.7 31.8 17.9 35 11.6 WNW 35 52 19 28 1006.9 1006.9 0.0
24/11:12am 35.8 32.7 17.5 34 11.8 WNW 30 50 16 27 1006.8 1006.8 0.0
24/11:00am 36.2 35.1 17.8 33 12.0 NW 20 30 11 16 1006.8 1006.8 0.0
24/10:30am 36.1 34.2 16.8 32 12.4 WNW 22 32 12 17 1006.9 1006.9 0.0
24/10:00am 37.1 34.0 16.6 29 13.2 WNW 28 39 15 21 1007.0 1007.0 0.0
24/09:30am 35.4 31.8 16.2 32 12.2 NW 30 41 16 22 1006.9 1006.9 0.0
24/09:00am 34.2 32.2 16.5 34 11.3 NW 22 37 12 20 1007.0 1007.0 0.0
24/08:57am 34.1 32.5 16.5 35 11.2 NW 20 37 11 20 1006.9 1006.9 0.0
24/08:30am 31.9 33.4 18.8 45 8.5 NW 9 13 5 7 1007.2 1007.2 0.0
24/08:00am 28.8 32.1 19.1 55 6.3 CALM 0 4 0 2 1007.4 1007.4 0.0
24/07:30am 27.9 29.8 18.9 58 5.8 SSE 7 9 4 5 1007.1 1007.1 0.0
24/07:00am 28.7 30.0 18.5 54 6.6 WNW 9 11 5 6 1006.5 1006.5 0.0
24/06:30am 28.0 29.7 18.4 56 6.1 WNW 7 9 4 5 1005.9 1005.9 0.0
24/06:00am 26.5 27.8 18.4 61 5.2 SW 9 11 5 6 1005.9 1005.9 0.0
24/05:30am 30.0 30.6 16.8 45 8.3 NNW 9 11 5 6 1005.7 1005.7 0.0
24/05:00am 29.0 29.8 18.1 51 7.0 NW 11 17 6 9 1005.6 1005.6 0.0
24/04:30am 24.4 27.1 19.5 74 3.1 SSW 4 9 2 5 1005.4 1005.4 0.0
24/04:00am 24.2 27.5 19.1 73 3.3 CALM 0 0 0 0 1005.6 1005.6 0.0
24/03:30am 24.2 26.7 19.1 73 3.3 SW 4 9 2 5 1006.1 1006.1 0.0
24/03:00am 24.3 27.1 19.6 75 3.0 SE 4 13 2 7 1006.1 1006.1 0.0
24/02:30am 25.5 28.6 18.7 66 4.3 CALM 0 0 0 0 1006.5 1006.5 0.0
24/02:00am 26.4 29.6 18.8 63 4.9 CALM 0 0 0 0 1006.9 1006.9 0.0
24/01:30am 25.4 28.0 18.3 65 4.5 E 2 6 1 3 1007.1 1007.1 0.0
24/01:00am 26.4 29.0 18.3 61 5.2 E 2 7 1 4 1007.4 1007.4 0.0
24/12:30am 26.0 29.0 18.4 63 4.8 CALM 0 0 0 0 1007.7 1007.7 0.0
24/12:00am 26.7 28.5 17.5 57 5.8 NE 4 7 2 4 1007.9 1007.9 0.0
 
Date/Time
EDT
Temp
°C
App
Temp
°C
Dew
Point
°C
Rel
Hum
%
Delta-T
°C
Wind Press
QNH
hPa
Press
MSL
hPa
Rain since
9am
mm
Dir  Spd
km/h
Gust
km/h
Spd
kts
Gust
kts
23/11:30pm 27.9 29.3 17.7 53 6.4 NE 7 11 4 6 1008.0 1008.0 0.0
23/11:00pm 27.9 29.4 17.7 53 6.5 NE 6 9 3 5 1008.2 1008.2 0.0
23/10:30pm 28.3 29.1 17.2 51 7.0 NE 9 17 5 9 1008.2 1008.2 0.0
23/10:00pm 28.4 29.0 16.7 49 7.3 NE 9 15 5 8 1008.4 1008.4 0.0
23/09:30pm 28.7 28.7 16.3 47 7.7 NNE 11 17 6 9 1008.1 1008.1 0.0
23/09:00pm 28.8 29.0 15.7 45 8.1 NE 9 19 5 10 1007.9 1007.9 0.0
23/08:30pm 29.2 28.5 15.3 42 8.5 NE 13 24 7 13 1007.6 1007.6 0.0
23/08:00pm 29.8 28.4 15.5 42 8.8 NE 17 28 9 15 1007.3 1007.3 0.0
23/07:30pm 30.6 28.8 17.0 44 8.6 NE 22 37 12 20 1006.8 1006.8 0.0
23/07:00pm 31.5 30.1 17.0 41 9.2 NE 20 32 11 17 1006.5 1006.5 0.0
23/06:30pm 31.7 29.6 17.2 42 9.2 ENE 24 37 13 20 1006.7 1006.7 0.0
23/06:00pm 32.3 30.4 17.7 41 9.4 ENE 24 35 13 19 1006.5 1006.5 0.0
23/05:30pm 32.2 29.9 17.7 42 9.3 NE 26 35 14 19 1006.6 1006.6 0.0
23/05:00pm 32.7 30.4 18.5 43 9.2 ENE 28 41 15 22 1007.1 1007.1 0.0
23/04:30pm 32.7 30.2 18.1 42 9.4 ENE 28 37 15 20 1007.4 1007.4 0.0
23/04:00pm 33.0 30.9 18.0 41 9.7 ENE 26 39 14 21 1007.8 1007.8 0.0
23/03:30pm 33.5 32.1 18.8 41 9.6 ENE 24 33 13 18 1008.4 1008.4 0.0
23/03:00pm 33.0 31.9 18.7 42 9.3 ENE 22 33 12 18 1008.9 1008.9 0.0
23/02:30pm 32.0 31.4 18.9 45 8.5 ENE 20 30 11 16 1009.5 1009.5 0.0
23/02:00pm 32.1 31.6 19.0 45 8.6 ENE 20 28 11 15 1010.0 1010.0 0.0
23/01:30pm 31.9 31.6 19.5 47 8.1 ENE 20 24 11 13 1010.6 1010.6 0.0
23/01:00pm 31.0 30.4 18.4 47 8.1 E 19 30 10 16 1011.3 1011.3 0.0
23/12:30pm 30.7 29.9 18.1 47 8.1 ENE 19 28 10 15 1011.6 1011.6 0.0
23/12:00pm 31.5 31.9 18.1 44 8.6 NNE 13 19 7 10 1012.0 1012.0 0.0
23/11:30am 29.8 29.2 16.6 45 8.3 NE 15 22 8 12 1012.4 1012.4 0.0
23/11:00am 28.7 28.9 17.6 51 7.0 NE 13 19 7 10 1012.8 1012.8 0.0
23/10:30am 27.1 28.0 18.4 59 5.5 NE 11 20 6 11 1013.5 1013.5 0.0
23/10:00am 25.9 27.3 17.8 61 5.1 NNE 7 13 4 7 1014.2 1014.2 0.0
23/09:30am 24.7 25.1 18.2 67 4.1 NW 13 17 7 9 1014.8 1014.8 0.0
23/09:00am 24.3 24.3 18.0 68 3.9 NW 15 24 8 13 1014.9 1014.9 0.0
23/08:30am 23.1 24.1 17.8 72 3.3 NNW 9 15 5 8 1014.7 1014.7 0.0
23/08:00am 22.4 23.7 17.5 74 3.0 NNW 7 11 4 6 1014.8 1014.8 0.0
23/07:30am 21.6 24.4 18.0 80 2.2 CALM 0 2 0 1 1014.3 1014.3 0.0
23/07:00am 20.4 23.1 17.8 85 1.6 CALM 0 0 0 0 1014.2 1014.2 0.0
23/06:30am 19.9 21.8 17.7 87 1.4 NE 4 7 2 4 1013.9 1013.9 0.0
23/06:00am 19.3 21.7 17.1 87 1.3 CALM 0 0 0 0 1013.9 1013.9 0.0
23/05:30am 19.4 21.0 16.8 85 1.6 NE 4 6 2 3 1013.8 1013.8 0.0
23/05:00am 20.8 22.3 17.6 82 2.0 NE 6 7 3 4 1013.6 1013.6 0.0
23/04:30am 21.0 23.6 17.6 81 2.1 CALM 0 4 0 2 1013.6 1013.6 0.0
23/04:00am 21.2 22.7 17.6 80 2.2 NE 6 7 3 4 1013.7 1013.7 0.0
23/03:30am 21.4 22.7 17.6 79 2.3 NE 7 9 4 5 1013.7 1013.7 0.0
23/03:00am 21.7 23.1 17.7 78 2.5 NE 7 11 4 6 1013.9 1013.9 0.0
23/02:30am 21.9 23.3 17.7 77 2.6 NE 7 9 4 5 1014.0 1014.0 0.0
23/02:00am 22.2 23.1 17.6 75 2.8 NE 9 11 5 6 1014.3 1014.3 0.0
23/01:30am 22.4 23.3 17.5 74 3.0 NE 9 13 5 7 1014.8 1014.8 0.0
23/01:00am 22.8 24.2 17.7 73 3.2 NE 7 15 4 8 1015.2 1015.2 0.0
23/12:30am 22.8 23.4 17.7 73 3.2 NE 11 19 6 10 1015.3 1015.3 0.0
23/12:00am 22.8 23.3 17.5 72 3.3 NNE 11 17 6 9 1015.5 1015.5 0.0
 
Date/Time
EDT
Temp
°C
App
Temp
°C
Dew
Point
°C
Rel
Hum
%
Delta-T
°C
Wind Press
QNH
hPa
Press
MSL
hPa
Rain since
9am
mm
Dir  Spd
km/h
Gust
km/h
Spd
kts
Gust
kts
22/11:30pm 22.6 23.1 17.5 73 3.2 NNE 11 19 6 10 1015.6 1015.6 0.0
22/11:00pm 22.7 22.4 17.4 72 3.3 NNE 15 20 8 11 1015.6 1015.6 0.0
22/10:30pm 22.8 22.5 17.3 71 3.4 NNE 15 24 8 13 1015.7 1015.7 0.0
22/10:00pm 23.0 22.2 17.2 70 3.6 NNE 17 22 9 12 1015.6 1015.6 0.0
22/09:30pm 23.1 22.1 16.6 67 4.0 NNE 17 24 9 13 1015.4 1015.4 0.0
22/09:00pm 23.3 21.7 16.4 65 4.2 NE 20 28 11 15 1015.2 1015.2 0.0
22/08:30pm 23.7 22.5 16.0 62 4.7 NE 17 32 9 17 1015.0 1015.0 0.0
22/08:00pm 24.0 22.8 16.0 61 4.9 NE 17 26 9 14 1014.8 1014.8 0.0
22/07:30pm 24.4 22.4 15.6 58 5.3 NE 20 32 11 17 1014.7 1014.7 0.0
22/07:00pm 25.2 23.2 15.5 55 5.9 NE 20 32 11 17 1014.5 1014.5 0.0
22/06:30pm 25.4 23.0 15.4 54 6.0 ENE 22 35 12 19 1014.1 1014.1 0.0
22/06:00pm 25.8 22.9 15.2 52 6.4 ENE 24 35 13 19 1013.9 1013.9 0.0
22/05:30pm 26.6 24.0 15.0 49 7.0 ENE 22 35 12 19 1014.0 1014.0 0.0
22/05:00pm 26.9 23.6 15.0 48 7.2 E 26 35 14 19 1014.2 1014.2 0.0
22/04:30pm 27.1 24.2 15.1 47 7.3 E 24 35 13 19 1014.5 1014.5 0.0
22/04:00pm 26.7 23.8 15.1 49 7.0 ENE 24 37 13 20 1014.7 1014.7 0.0
22/03:30pm 26.9 24.8 15.3 49 7.0 ENE 20 32 11 17 1014.9 1014.9 0.0
22/03:00pm 26.8 25.4 15.5 50 6.9 NE 17 26 9 14 1015.1 1015.1 0.0
22/02:30pm 26.7 25.5 15.1 49 7.0 NE 15 28 8 15 1015.4 1015.4 0.0
22/02:00pm 26.4 25.1 14.8 49 7.0 NNE 15 30 8 16 1015.6 1015.6 0.0
22/01:30pm 26.5 25.6 14.9 49 7.0 NE 13 19 7 10 1015.9 1015.9 0.0
22/01:00pm 25.5 23.9 14.0 49 6.8 E 15 30 8 16 1016.3 1016.3 0.0
22/12:30pm 25.1 23.9 13.9 49 6.6 NE 13 22 7 12 1016.7 1016.7 0.0
22/12:00pm 25.2 23.5 14.6 51 6.3 ENE 17 22 9 12 1017.0 1017.0 0.0
22/11:30am 24.7 23.8 13.6 50 6.5 NE 11 19 6 10 1017.1 1017.1 0.0
22/11:00am 24.3 22.6 13.5 51 6.3 ENE 15 20 8 11 1017.3 1017.3 0.0
22/10:30am 24.6 23.8 14.1 52 6.2 NNE 11 17 6 9 1017.5 1017.5 0.0
22/10:00am 24.0 23.5 13.8 53 6.0 ENE 9 17 5 9 1017.6 1017.6 0.0
22/09:30am 23.6 23.8 14.3 56 5.5 E 6 9 3 5 1017.8 1017.8 0.0
22/09:00am 22.1 22.3 13.2 57 5.1 NE 4 9 2 5 1018.0 1018.0 0.0
22/08:30am 21.4 21.8 13.6 61 4.5 S 4 11 2 6 1017.9 1017.9 0.0
22/08:00am 20.8 20.8 13.7 64 4.1 SSW 6 9 3 5 1017.8 1017.8 0.0
22/07:30am 20.2 20.2 13.6 66 3.8 S 6 7 3 4 1017.7 1017.7 0.0
22/07:00am 19.8 19.6 13.7 68 3.5 S 7 9 4 5 1017.5 1017.5 0.0
22/06:30am 19.7 19.5 13.6 68 3.5 S 7 9 4 5 1017.4 1017.4 0.0
22/06:00am 19.7 19.6 13.9 69 3.3 SSW 7 9 4 5 1017.3 1017.3 0.0
22/05:30am 19.7 19.6 13.9 69 3.3 SSW 7 9 4 5 1017.0 1017.0 0.0
22/05:00am 19.7 19.5 13.6 68 3.5 S 7 9 4 5 1016.9 1016.9 0.0
22/04:30am 19.7 19.5 13.6 68 3.5 SSW 7 9 4 5 1016.6 1016.6 0.0

Other Formats:

Comma delimited format used in spreadsheet applications
http://www.bom.gov.au/fwo/IDN60801/IDN60801.94765.axf

JavaScript Object Notation format (JSON) in row-major order
http://www.bom.gov.au/fwo/IDN60801/IDN60801.94765.json